sensor_id;sensor_type;location;lat;lon;timestamp;temperature;humidity
29813;DHT22;16707;48.106;11.548;2023-06-04T00:00:50;11.40;99.90
29813;DHT22;16707;48.106;11.548;2023-06-04T00:03:17;11.40;99.90
29813;DHT22;16707;48.106;11.548;2023-06-04T00:05:49;11.40;99.90
29813;DHT22;16707;48.106;11.548;2023-06-04T00:08:16;11.40;99.90
29813;DHT22;16707;48.106;11.548;2023-06-04T00:10:44;11.40;99.90
29813;DHT22;16707;48.106;11.548;2023-06-04T00:13:28;11.30;99.90
29813;DHT22;16707;48.106;11.548;2023-06-04T00:15:58;11.30;99.90
29813;DHT22;16707;48.106;11.548;2023-06-04T00:18:28;11.20;99.90
29813;DHT22;16707;48.106;11.548;2023-06-04T00:21:00;11.30;99.90
29813;DHT22;16707;48.106;11.548;2023-06-04T00:23:33;11.20;99.90
29813;DHT22;16707;48.106;11.548;2023-06-04T00:26:03;11.30;99.90
29813;DHT22;16707;48.106;11.548;2023-06-04T00:28:31;11.20;99.90
29813;DHT22;16707;48.106;11.548;2023-06-04T00:31:07;11.10;99.90
29813;DHT22;16707;48.106;11.548;2023-06-04T00:33:36;11.00;99.90
29813;DHT22;16707;48.106;11.548;2023-06-04T00:36:07;11.00;99.90
29813;DHT22;16707;48.106;11.548;2023-06-04T00:38:38;11.10;99.90
29813;DHT22;16707;48.106;11.548;2023-06-04T00:41:06;11.10;99.90
29813;DHT22;16707;48.106;11.548;2023-06-04T00:43:34;11.10;99.90
29813;DHT22;16707;48.106;11.548;2023-06-04T00:46:02;10.90;99.90
29813;DHT22;16707;48.106;11.548;2023-06-04T00:48:35;11.00;99.90
29813;DHT22;16707;48.106;11.548;2023-06-04T00:51:06;11.00;99.90
29813;DHT22;16707;48.106;11.548;2023-06-04T00:53:39;10.90;99.90
29813;DHT22;16707;48.106;11.548;2023-06-04T00:56:06;10.90;99.90
29813;DHT22;16707;48.106;11.548;2023-06-04T00:58:37;10.90;99.90
29813;DHT22;16707;48.106;11.548;2023-06-04T01:01:10;10.80;99.90
29813;DHT22;16707;48.106;11.548;2023-06-04T01:03:41;10.70;99.90
29813;DHT22;16707;48.106;11.548;2023-06-04T01:06:15;10.70;99.90
29813;DHT22;16707;48.106;11.548;2023-06-04T01:08:51;10.70;99.90
29813;DHT22;16707;48.106;11.548;2023-06-04T01:11:41;10.70;99.90
29813;DHT22;16707;48.106;11.548;2023-06-04T01:14:09;10.60;99.90
29813;DHT22;16707;48.106;11.548;2023-06-04T01:16:39;10.50;99.90
29813;DHT22;16707;48.106;11.548;2023-06-04T01:22:29;10.50;99.90
29813;DHT22;16707;48.106;11.548;2023-06-04T01:25:02;10.40;99.90
29813;DHT22;16707;48.106;11.548;2023-06-04T01:27:30;10.30;99.90
29813;DHT22;16707;48.106;11.548;2023-06-04T01:30:01;10.30;99.90
29813;DHT22;16707;48.106;11.548;2023-06-04T01:32:30;10.30;99.90
29813;DHT22;16707;48.106;11.548;2023-06-04T01:35:08;10.20;99.90
29813;DHT22;16707;48.106;11.548;2023-06-04T01:37:37;10.20;99.90
29813;DHT22;16707;48.106;11.548;2023-06-04T01:40:05;10.10;99.90
29813;DHT22;16707;48.106;11.548;2023-06-04T01:42:40;10.10;99.90
29813;DHT22;16707;48.106;11.548;2023-06-04T01:45:08;10.10;99.90
29813;DHT22;16707;48.106;11.548;2023-06-04T01:47:41;10.00;99.90
29813;DHT22;16707;48.106;11.548;2023-06-04T01:50:33;10.10;99.90
29813;DHT22;16707;48.106;11.548;2023-06-04T01:53:04;10.00;99.90
29813;DHT22;16707;48.106;11.548;2023-06-04T01:55:37;10.00;99.90
29813;DHT22;16707;48.106;11.548;2023-06-04T01:58:04;9.90;99.90
29813;DHT22;16707;48.106;11.548;2023-06-04T02:00:35;9.90;99.90
29813;DHT22;16707;48.106;11.548;2023-06-04T02:03:09;9.80;99.90
29813;DHT22;16707;48.106;11.548;2023-06-04T02:05:38;9.80;99.90
29813;DHT22;16707;48.106;11.548;2023-06-04T02:08:07;9.70;99.90
29813;DHT22;16707;48.106;11.548;2023-06-04T02:10:37;9.70;99.90
29813;DHT22;16707;48.106;11.548;2023-06-04T02:13:14;9.70;99.90
29813;DHT22;16707;48.106;11.548;2023-06-04T02:15:43;9.80;99.90
29813;DHT22;16707;48.106;11.548;2023-06-04T02:18:26;9.80;99.90
29813;DHT22;16707;48.106;11.548;2023-06-04T02:21:01;9.70;99.90
29813;DHT22;16707;48.106;11.548;2023-06-04T02:23:30;9.60;99.90
29813;DHT22;16707;48.106;11.548;2023-06-04T02:26:00;9.50;99.90
29813;DHT22;16707;48.106;11.548;2023-06-04T02:28:27;9.50;99.90
29813;DHT22;16707;48.106;11.548;2023-06-04T02:30:56;9.50;99.90
29813;DHT22;16707;48.106;11.548;2023-06-04T02:33:26;9.30;99.90
29813;DHT22;16707;48.106;11.548;2023-06-04T02:35:54;9.40;99.90
29813;DHT22;16707;48.106;11.548;2023-06-04T02:38:27;9.40;99.90
29813;DHT22;16707;48.106;11.548;2023-06-04T02:40:59;9.50;99.90
29813;DHT22;16707;48.106;11.548;2023-06-04T02:43:26;9.50;99.90
29813;DHT22;16707;48.106;11.548;2023-06-04T02:45:53;9.40;99.90
29813;DHT22;16707;48.106;11.548;2023-06-04T02:48:21;9.40;99.90
29813;DHT22;16707;48.106;11.548;2023-06-04T02:50:51;9.30;99.90
29813;DHT22;16707;48.106;11.548;2023-06-04T02:53:18;9.30;99.90
29813;DHT22;16707;48.106;11.548;2023-06-04T02:55:50;9.30;99.90
29813;DHT22;16707;48.106;11.548;2023-06-04T02:58:20;9.20;99.90
29813;DHT22;16707;48.106;11.548;2023-06-04T03:00:47;9.20;99.90
29813;DHT22;16707;48.106;11.548;2023-06-04T03:03:15;9.20;99.90
29813;DHT22;16707;48.106;11.548;2023-06-04T03:05:42;9.20;99.90
29813;DHT22;16707;48.106;11.548;2023-06-04T03:08:09;9.20;99.90
29813;DHT22;16707;48.106;11.548;2023-06-04T03:10:36;9.10;99.90
29813;DHT22;16707;48.106;11.548;2023-06-04T03:13:03;9.10;99.90
29813;DHT22;16707;48.106;11.548;2023-06-04T03:15:42;9.20;99.90
29813;DHT22;16707;48.106;11.548;2023-06-04T03:18:10;9.20;99.90
29813;DHT22;16707;48.106;11.548;2023-06-04T03:20:40;9.20;99.90
29813;DHT22;16707;48.106;11.548;2023-06-04T03:23:10;9.20;99.90
29813;DHT22;16707;48.106;11.548;2023-06-04T03:25:40;9.10;99.90
29813;DHT22;16707;48.106;11.548;2023-06-04T03:28:11;9.20;99.90
29813;DHT22;16707;48.106;11.548;2023-06-04T03:30:44;9.20;99.90
29813;DHT22;16707;48.106;11.548;2023-06-04T03:33:14;9.20;99.90
29813;DHT22;16707;48.106;11.548;2023-06-04T03:35:49;9.30;99.90
29813;DHT22;16707;48.106;11.548;2023-06-04T03:38:21;9.30;99.90
29813;DHT22;16707;48.106;11.548;2023-06-04T03:40:48;9.30;99.90
29813;DHT22;16707;48.106;11.548;2023-06-04T03:43:19;9.40;99.90
29813;DHT22;16707;48.106;11.548;2023-06-04T03:45:48;9.40;99.90
29813;DHT22;16707;48.106;11.548;2023-06-04T03:48:21;9.50;99.90
29813;DHT22;16707;48.106;11.548;2023-06-04T03:50:52;9.50;99.90
29813;DHT22;16707;48.106;11.548;2023-06-04T03:53:19;9.50;99.90
29813;DHT22;16707;48.106;11.548;2023-06-04T03:55:55;9.70;99.90
29813;DHT22;16707;48.106;11.548;2023-06-04T03:58:29;9.80;99.90
29813;DHT22;16707;48.106;11.548;2023-06-04T04:01:01;10.00;99.90
29813;DHT22;16707;48.106;11.548;2023-06-04T04:03:30;10.10;99.90
29813;DHT22;16707;48.106;11.548;2023-06-04T04:05:58;10.30;99.90
29813;DHT22;16707;48.106;11.548;2023-06-04T04:08:26;10.40;99.90
29813;DHT22;16707;48.106;11.548;2023-06-04T04:10:57;10.50;99.90
29813;DHT22;16707;48.106;11.548;2023-06-04T04:13:29;10.50;99.90
29813;DHT22;16707;48.106;11.548;2023-06-04T04:16:04;10.60;99.90
29813;DHT22;16707;48.106;11.548;2023-06-04T04:18:42;10.70;99.90
29813;DHT22;16707;48.106;11.548;2023-06-04T04:21:12;10.80;99.90
29813;DHT22;16707;48.106;11.548;2023-06-04T04:23:44;10.90;99.90
29813;DHT22;16707;48.106;11.548;2023-06-04T04:26:15;11.00;99.90
29813;DHT22;16707;48.106;11.548;2023-06-04T04:28:46;11.10;99.90
29813;DHT22;16707;48.106;11.548;2023-06-04T04:31:32;11.30;99.90
29813;DHT22;16707;48.106;11.548;2023-06-04T04:34:03;11.50;99.90
29813;DHT22;16707;48.106;11.548;2023-06-04T04:36:34;11.70;99.90
29813;DHT22;16707;48.106;11.548;2023-06-04T04:39:05;12.20;99.90
29813;DHT22;16707;48.106;11.548;2023-06-04T04:41:37;14.70;99.90
29813;DHT22;16707;48.106;11.548;2023-06-04T04:44:12;18.80;99.90
29813;DHT22;16707;48.106;11.548;2023-06-04T04:46:47;22.00;90.30
29813;DHT22;16707;48.106;11.548;2023-06-04T04:49:15;24.50;70.60
29813;DHT22;16707;48.106;11.548;2023-06-04T04:51:45;26.10;59.20
29813;DHT22;16707;48.106;11.548;2023-06-04T04:54:12;27.60;54.40
29813;DHT22;16707;48.106;11.548;2023-06-04T04:56:47;29.10;49.30
29813;DHT22;16707;48.106;11.548;2023-06-04T04:59:16;30.10;45.40
29813;DHT22;16707;48.106;11.548;2023-06-04T05:01:50;29.70;43.90
29813;DHT22;16707;48.106;11.548;2023-06-04T05:04:17;31.40;41.40
29813;DHT22;16707;48.106;11.548;2023-06-04T05:06:45;32.10;39.80
29813;DHT22;16707;48.106;11.548;2023-06-04T05:09:15;33.00;37.70
29813;DHT22;16707;48.106;11.548;2023-06-04T05:11:48;33.30;35.10
29813;DHT22;16707;48.106;11.548;2023-06-04T05:14:17;34.10;33.30
29813;DHT22;16707;48.106;11.548;2023-06-04T05:16:49;34.30;33.70
29813;DHT22;16707;48.106;11.548;2023-06-04T05:19:16;35.30;31.20
29813;DHT22;16707;48.106;11.548;2023-06-04T05:21:46;35.60;29.80
29813;DHT22;16707;48.106;11.548;2023-06-04T05:24:14;35.40;29.50
29813;DHT22;16707;48.106;11.548;2023-06-04T05:26:45;36.20;28.70
29813;DHT22;16707;48.106;11.548;2023-06-04T05:29:14;36.00;28.70
29813;DHT22;16707;48.106;11.548;2023-06-04T05:31:41;36.20;26.40
29813;DHT22;16707;48.106;11.548;2023-06-04T05:34:12;34.90;27.90
29813;DHT22;16707;48.106;11.548;2023-06-04T05:36:45;32.60;28.30
29813;DHT22;16707;48.106;11.548;2023-06-04T05:39:12;33.20;28.20
29813;DHT22;16707;48.106;11.548;2023-06-04T05:41:39;34.60;28.50
29813;DHT22;16707;48.106;11.548;2023-06-04T05:44:08;36.10;27.00
29813;DHT22;16707;48.106;11.548;2023-06-04T05:46:35;36.00;26.50
29813;DHT22;16707;48.106;11.548;2023-06-04T05:49:03;37.70;25.10
29813;DHT22;16707;48.106;11.548;2023-06-04T05:51:31;35.70;26.10
29813;DHT22;16707;48.106;11.548;2023-06-04T05:53:58;38.00;26.30
29813;DHT22;16707;48.106;11.548;2023-06-04T05:56:25;37.60;24.80
29813;DHT22;16707;48.106;11.548;2023-06-04T05:58:52;38.10;25.10
29813;DHT22;16707;48.106;11.548;2023-06-04T06:01:20;39.00;24.70
29813;DHT22;16707;48.106;11.548;2023-06-04T06:03:47;38.10;23.90
29813;DHT22;16707;48.106;11.548;2023-06-04T06:06:14;37.30;25.00
29813;DHT22;16707;48.106;11.548;2023-06-04T06:08:43;38.90;23.60
29813;DHT22;16707;48.106;11.548;2023-06-04T06:11:11;38.00;23.80
29813;DHT22;16707;48.106;11.548;2023-06-04T06:13:38;37.50;23.80
29813;DHT22;16707;48.106;11.548;2023-06-04T06:16:05;36.80;24.30
29813;DHT22;16707;48.106;11.548;2023-06-04T06:18:33;37.70;24.60
29813;DHT22;16707;48.106;11.548;2023-06-04T06:21:00;39.70;23.90
29813;DHT22;16707;48.106;11.548;2023-06-04T06:23:27;39.30;23.50
29813;DHT22;16707;48.106;11.548;2023-06-04T06:25:55;39.20;23.20
29813;DHT22;16707;48.106;11.548;2023-06-04T06:28:23;38.60;24.00
29813;DHT22;16707;48.106;11.548;2023-06-04T06:30:49;39.80;22.90
29813;DHT22;16707;48.106;11.548;2023-06-04T06:33:17;39.10;22.90
29813;DHT22;16707;48.106;11.548;2023-06-04T06:35:47;39.80;23.40
29813;DHT22;16707;48.106;11.548;2023-06-04T06:38:14;39.40;23.00
29813;DHT22;16707;48.106;11.548;2023-06-04T06:40:41;39.30;22.70
29813;DHT22;16707;48.106;11.548;2023-06-04T06:43:10;40.50;22.50
29813;DHT22;16707;48.106;11.548;2023-06-04T06:45:37;39.00;22.00
29813;DHT22;16707;48.106;11.548;2023-06-04T06:48:06;40.20;22.40
29813;DHT22;16707;48.106;11.548;2023-06-04T06:50:33;38.60;21.90
29813;DHT22;16707;48.106;11.548;2023-06-04T06:53:04;38.90;23.10
29813;DHT22;16707;48.106;11.548;2023-06-04T06:55:34;39.70;23.00
29813;DHT22;16707;48.106;11.548;2023-06-04T06:58:03;39.20;22.90
29813;DHT22;16707;48.106;11.548;2023-06-04T07:00:41;39.00;23.30
29813;DHT22;16707;48.106;11.548;2023-06-04T07:03:08;40.60;22.90
29813;DHT22;16707;48.106;11.548;2023-06-04T07:05:35;39.80;22.20
29813;DHT22;16707;48.106;11.548;2023-06-04T07:08:02;40.50;23.00
29813;DHT22;16707;48.106;11.548;2023-06-04T07:10:33;38.40;23.40
29813;DHT22;16707;48.106;11.548;2023-06-04T07:13:00;39.70;23.00
29813;DHT22;16707;48.106;11.548;2023-06-04T07:15:30;39.80;23.20
29813;DHT22;16707;48.106;11.548;2023-06-04T07:17:59;41.90;22.00
29813;DHT22;16707;48.106;11.548;2023-06-04T07:20:26;43.10;21.30
29813;DHT22;16707;48.106;11.548;2023-06-04T07:22:53;43.20;20.90
29813;DHT22;16707;48.106;11.548;2023-06-04T07:25:20;41.60;21.10
29813;DHT22;16707;48.106;11.548;2023-06-04T07:27:49;39.70;22.70
29813;DHT22;16707;48.106;11.548;2023-06-04T07:30:23;36.20;23.90
29813;DHT22;16707;48.106;11.548;2023-06-04T07:32:52;32.10;26.20
29813;DHT22;16707;48.106;11.548;2023-06-04T07:35:19;28.50;32.30
29813;DHT22;16707;48.106;11.548;2023-06-04T07:37:46;24.40;38.70
29813;DHT22;16707;48.106;11.548;2023-06-04T07:40:15;23.50;41.60
29813;DHT22;16707;48.106;11.548;2023-06-04T07:42:45;22.60;44.10
29813;DHT22;16707;48.106;11.548;2023-06-04T07:45:16;21.80;45.80
29813;DHT22;16707;48.106;11.548;2023-06-04T07:47:44;21.20;48.30
29813;DHT22;16707;48.106;11.548;2023-06-04T07:50:15;20.80;50.00
29813;DHT22;16707;48.106;11.548;2023-06-04T07:52:42;20.40;51.70
29813;DHT22;16707;48.106;11.548;2023-06-04T07:55:09;19.90;53.10
29813;DHT22;16707;48.106;11.548;2023-06-04T07:57:37;19.90;53.50
29813;DHT22;16707;48.106;11.548;2023-06-04T08:00:08;19.80;54.20
29813;DHT22;16707;48.106;11.548;2023-06-04T08:02:42;19.70;54.70
29813;DHT22;16707;48.106;11.548;2023-06-04T08:05:09;19.90;54.90
29813;DHT22;16707;48.106;11.548;2023-06-04T08:07:40;20.10;55.60
29813;DHT22;16707;48.106;11.548;2023-06-04T08:10:08;20.20;55.90
29813;DHT22;16707;48.106;11.548;2023-06-04T08:12:36;20.30;56.20
29813;DHT22;16707;48.106;11.548;2023-06-04T08:15:14;20.20;55.60
29813;DHT22;16707;48.106;11.548;2023-06-04T08:17:43;20.10;55.90
29813;DHT22;16707;48.106;11.548;2023-06-04T08:20:10;20.00;56.40
29813;DHT22;16707;48.106;11.548;2023-06-04T08:22:37;20.20;57.30
29813;DHT22;16707;48.106;11.548;2023-06-04T08:25:06;20.20;55.60
29813;DHT22;16707;48.106;11.548;2023-06-04T08:27:35;20.10;56.60
29813;DHT22;16707;48.106;11.548;2023-06-04T08:30:03;20.20;55.60
29813;DHT22;16707;48.106;11.548;2023-06-04T08:32:34;20.10;56.40
29813;DHT22;16707;48.106;11.548;2023-06-04T08:35:07;20.00;55.90
29813;DHT22;16707;48.106;11.548;2023-06-04T08:37:35;19.90;56.80
29813;DHT22;16707;48.106;11.548;2023-06-04T08:40:03;19.90;56.10
29813;DHT22;16707;48.106;11.548;2023-06-04T08:42:40;20.00;55.50
29813;DHT22;16707;48.106;11.548;2023-06-04T08:45:11;20.00;55.50
29813;DHT22;16707;48.106;11.548;2023-06-04T08:47:47;19.90;54.70
29813;DHT22;16707;48.106;11.548;2023-06-04T08:50:17;20.00;55.70
29813;DHT22;16707;48.106;11.548;2023-06-04T08:52:51;20.30;56.20
29813;DHT22;16707;48.106;11.548;2023-06-04T08:55:21;20.30;55.00
29813;DHT22;16707;48.106;11.548;2023-06-04T08:57:52;20.40;54.40
29813;DHT22;16707;48.106;11.548;2023-06-04T09:00:20;20.50;54.30
29813;DHT22;16707;48.106;11.548;2023-06-04T09:02:50;20.70;53.70
29813;DHT22;16707;48.106;11.548;2023-06-04T09:05:19;20.90;54.10
29813;DHT22;16707;48.106;11.548;2023-06-04T09:07:51;21.00;53.50
29813;DHT22;16707;48.106;11.548;2023-06-04T09:10:21;21.10;52.70
29813;DHT22;16707;48.106;11.548;2023-06-04T09:12:57;21.00;52.30
29813;DHT22;16707;48.106;11.548;2023-06-04T09:15:30;20.70;53.80
29813;DHT22;16707;48.106;11.548;2023-06-04T09:17:57;20.90;53.00
29813;DHT22;16707;48.106;11.548;2023-06-04T09:20:28;21.10;53.10
29813;DHT22;16707;48.106;11.548;2023-06-04T09:22:59;21.10;52.60
29813;DHT22;16707;48.106;11.548;2023-06-04T09:25:31;21.00;52.90
29813;DHT22;16707;48.106;11.548;2023-06-04T09:28:07;20.90;52.90
29813;DHT22;16707;48.106;11.548;2023-06-04T09:30:34;21.20;54.10
29813;DHT22;16707;48.106;11.548;2023-06-04T09:33:10;21.30;53.00
29813;DHT22;16707;48.106;11.548;2023-06-04T09:35:38;21.40;53.60
29813;DHT22;16707;48.106;11.548;2023-06-04T09:38:05;21.40;52.50
29813;DHT22;16707;48.106;11.548;2023-06-04T09:40:42;21.40;51.80
29813;DHT22;16707;48.106;11.548;2023-06-04T09:43:20;21.60;51.50
29813;DHT22;16707;48.106;11.548;2023-06-04T09:45:48;21.60;51.10
29813;DHT22;16707;48.106;11.548;2023-06-04T09:48:19;21.60;50.90
29813;DHT22;16707;48.106;11.548;2023-06-04T09:50:49;21.50;49.50
29813;DHT22;16707;48.106;11.548;2023-06-04T09:53:18;21.50;50.50
29813;DHT22;16707;48.106;11.548;2023-06-04T09:55:56;21.70;50.40
29813;DHT22;16707;48.106;11.548;2023-06-04T09:58:26;21.50;49.90
29813;DHT22;16707;48.106;11.548;2023-06-04T10:00:56;21.70;50.20
29813;DHT22;16707;48.106;11.548;2023-06-04T10:03:25;22.00;50.70
29813;DHT22;16707;48.106;11.548;2023-06-04T10:05:54;22.10;49.50
29813;DHT22;16707;48.106;11.548;2023-06-04T10:08:23;22.30;49.80
29813;DHT22;16707;48.106;11.548;2023-06-04T10:10:55;22.00;47.70
29813;DHT22;16707;48.106;11.548;2023-06-04T10:13:31;21.90;48.90
29813;DHT22;16707;48.106;11.548;2023-06-04T10:16:05;21.90;49.40
29813;DHT22;16707;48.106;11.548;2023-06-04T10:18:35;21.80;48.70
29813;DHT22;16707;48.106;11.548;2023-06-04T10:21:03;21.90;48.10
29813;DHT22;16707;48.106;11.548;2023-06-04T10:23:31;22.00;48.20
29813;DHT22;16707;48.106;11.548;2023-06-04T10:26:02;22.10;47.80
29813;DHT22;16707;48.106;11.548;2023-06-04T10:28:32;22.60;48.00
29813;DHT22;16707;48.106;11.548;2023-06-04T10:31:02;22.80;47.20
29813;DHT22;16707;48.106;11.548;2023-06-04T10:33:29;23.00;47.70
29813;DHT22;16707;48.106;11.548;2023-06-04T10:36:15;22.60;47.00
29813;DHT22;16707;48.106;11.548;2023-06-04T10:38:46;22.40;47.60
29813;DHT22;16707;48.106;11.548;2023-06-04T10:41:15;22.50;48.80
29813;DHT22;16707;48.106;11.548;2023-06-04T10:43:48;22.50;46.70
29813;DHT22;16707;48.106;11.548;2023-06-04T10:46:17;22.40;46.00
29813;DHT22;16707;48.106;11.548;2023-06-04T10:48:54;22.40;46.30
29813;DHT22;16707;48.106;11.548;2023-06-04T10:51:32;22.90;46.20
29813;DHT22;16707;48.106;11.548;2023-06-04T10:54:03;22.90;46.10
29813;DHT22;16707;48.106;11.548;2023-06-04T10:56:34;22.80;46.20
29813;DHT22;16707;48.106;11.548;2023-06-04T10:59:17;22.60;45.30
29813;DHT22;16707;48.106;11.548;2023-06-04T11:02:07;22.40;47.20
29813;DHT22;16707;48.106;11.548;2023-06-04T11:04:35;22.20;47.30
29813;DHT22;16707;48.106;11.548;2023-06-04T11:07:13;22.20;47.20
29813;DHT22;16707;48.106;11.548;2023-06-04T11:09:48;22.40;47.10
29813;DHT22;16707;48.106;11.548;2023-06-04T11:12:19;22.70;45.90
29813;DHT22;16707;48.106;11.548;2023-06-04T11:14:57;23.00;45.20
29813;DHT22;16707;48.106;11.548;2023-06-04T11:17:25;23.30;44.90
29813;DHT22;16707;48.106;11.548;2023-06-04T11:19:52;23.30;45.00
29813;DHT22;16707;48.106;11.548;2023-06-04T11:22:21;22.90;45.80
29813;DHT22;16707;48.106;11.548;2023-06-04T11:24:48;23.10;45.70
29813;DHT22;16707;48.106;11.548;2023-06-04T11:27:24;23.10;44.20
29813;DHT22;16707;48.106;11.548;2023-06-04T11:29:55;23.30;45.20
29813;DHT22;16707;48.106;11.548;2023-06-04T11:32:33;23.40;45.30
29813;DHT22;16707;48.106;11.548;2023-06-04T11:35:04;23.30;44.70
29813;DHT22;16707;48.106;11.548;2023-06-04T11:37:32;23.10;44.80
29813;DHT22;16707;48.106;11.548;2023-06-04T11:39:59;23.20;45.70
29813;DHT22;16707;48.106;11.548;2023-06-04T11:42:27;23.10;44.70
29813;DHT22;16707;48.106;11.548;2023-06-04T11:44:56;22.90;44.80
29813;DHT22;16707;48.106;11.548;2023-06-04T11:47:25;22.80;44.80
29813;DHT22;16707;48.106;11.548;2023-06-04T11:49:54;22.90;44.20
29813;DHT22;16707;48.106;11.548;2023-06-04T11:52:22;23.10;44.80
29813;DHT22;16707;48.106;11.548;2023-06-04T11:54:50;23.20;44.40
29813;DHT22;16707;48.106;11.548;2023-06-04T11:57:18;23.10;45.30
29813;DHT22;16707;48.106;11.548;2023-06-04T11:59:45;23.30;46.40
29813;DHT22;16707;48.106;11.548;2023-06-04T12:02:16;23.60;44.50
29813;DHT22;16707;48.106;11.548;2023-06-04T12:04:46;23.80;43.40
29813;DHT22;16707;48.106;11.548;2023-06-04T12:07:22;23.80;43.60
29813;DHT22;16707;48.106;11.548;2023-06-04T12:09:50;24.00;43.70
29813;DHT22;16707;48.106;11.548;2023-06-04T12:12:22;24.20;42.30
29813;DHT22;16707;48.106;11.548;2023-06-04T12:14:58;24.20;43.60
29813;DHT22;16707;48.106;11.548;2023-06-04T12:17:28;24.20;42.90
29813;DHT22;16707;48.106;11.548;2023-06-04T12:20:00;24.00;42.90
29813;DHT22;16707;48.106;11.548;2023-06-04T12:22:27;23.80;43.50
29813;DHT22;16707;48.106;11.548;2023-06-04T12:24:57;23.80;43.00
29813;DHT22;16707;48.106;11.548;2023-06-04T12:27:28;23.70;43.20
29813;DHT22;16707;48.106;11.548;2023-06-04T12:29:56;23.40;43.50
29813;DHT22;16707;48.106;11.548;2023-06-04T12:32:34;23.40;44.10
29813;DHT22;16707;48.106;11.548;2023-06-04T12:35:03;23.00;43.80
29813;DHT22;16707;48.106;11.548;2023-06-04T12:37:37;23.20;44.30
29813;DHT22;16707;48.106;11.548;2023-06-04T12:40:08;23.70;45.40
29813;DHT22;16707;48.106;11.548;2023-06-04T12:42:39;23.60;43.90
29813;DHT22;16707;48.106;11.548;2023-06-04T12:45:09;23.50;43.40
29813;DHT22;16707;48.106;11.548;2023-06-04T12:47:40;23.70;44.90
29813;DHT22;16707;48.106;11.548;2023-06-04T12:50:16;23.90;45.00
29813;DHT22;16707;48.106;11.548;2023-06-04T12:52:53;23.80;43.10
29813;DHT22;16707;48.106;11.548;2023-06-04T12:55:20;23.40;43.50
29813;DHT22;16707;48.106;11.548;2023-06-04T12:57:48;23.50;43.90
29813;DHT22;16707;48.106;11.548;2023-06-04T13:00:15;23.70;43.30
29813;DHT22;16707;48.106;11.548;2023-06-04T13:02:42;23.60;43.60
29813;DHT22;16707;48.106;11.548;2023-06-04T13:05:13;23.90;42.50
29813;DHT22;16707;48.106;11.548;2023-06-04T13:07:42;23.80;42.10
29813;DHT22;16707;48.106;11.548;2023-06-04T13:10:09;23.40;42.10
29813;DHT22;16707;48.106;11.548;2023-06-04T13:12:37;23.50;42.00
29813;DHT22;16707;48.106;11.548;2023-06-04T13:15:05;24.00;42.70
29813;DHT22;16707;48.106;11.548;2023-06-04T13:17:35;24.60;42.10
29813;DHT22;16707;48.106;11.548;2023-06-04T13:20:03;24.80;40.40
29813;DHT22;16707;48.106;11.548;2023-06-04T13:22:38;24.30;39.60
29813;DHT22;16707;48.106;11.548;2023-06-04T13:25:08;24.10;40.80
29813;DHT22;16707;48.106;11.548;2023-06-04T13:27:43;24.10;40.30
29813;DHT22;16707;48.106;11.548;2023-06-04T13:30:15;24.00;40.30
29813;DHT22;16707;48.106;11.548;2023-06-04T13:32:43;24.30;40.20
29813;DHT22;16707;48.106;11.548;2023-06-04T13:35:10;24.30;38.20
29813;DHT22;16707;48.106;11.548;2023-06-04T13:37:38;24.10;40.10
29813;DHT22;16707;48.106;11.548;2023-06-04T13:40:06;24.40;39.10
29813;DHT22;16707;48.106;11.548;2023-06-04T13:42:35;24.30;38.90
29813;DHT22;16707;48.106;11.548;2023-06-04T13:45:02;23.90;38.70
29813;DHT22;16707;48.106;11.548;2023-06-04T13:47:39;24.00;39.10
29813;DHT22;16707;48.106;11.548;2023-06-04T13:50:10;23.90;39.40
29813;DHT22;16707;48.106;11.548;2023-06-04T13:52:40;24.10;39.10
29813;DHT22;16707;48.106;11.548;2023-06-04T13:55:13;23.70;39.00
29813;DHT22;16707;48.106;11.548;2023-06-04T13:57:42;23.70;39.00
29813;DHT22;16707;48.106;11.548;2023-06-04T14:00:10;23.60;39.70
29813;DHT22;16707;48.106;11.548;2023-06-04T14:02:39;23.50;39.50
29813;DHT22;16707;48.106;11.548;2023-06-04T14:05:06;23.80;40.20
29813;DHT22;16707;48.106;11.548;2023-06-04T14:07:34;24.10;38.80
29813;DHT22;16707;48.106;11.548;2023-06-04T14:10:09;24.50;38.90
29813;DHT22;16707;48.106;11.548;2023-06-04T14:12:43;24.90;38.00
29813;DHT22;16707;48.106;11.548;2023-06-04T14:15:11;25.00;37.50
29813;DHT22;16707;48.106;11.548;2023-06-04T14:17:39;25.00;37.70
29813;DHT22;16707;48.106;11.548;2023-06-04T14:20:11;24.50;38.10
29813;DHT22;16707;48.106;11.548;2023-06-04T14:22:46;24.10;40.00
29813;DHT22;16707;48.106;11.548;2023-06-04T14:25:14;24.20;38.30
29813;DHT22;16707;48.106;11.548;2023-06-04T14:27:42;24.00;38.30
29813;DHT22;16707;48.106;11.548;2023-06-04T14:30:10;24.10;38.00
29813;DHT22;16707;48.106;11.548;2023-06-04T14:32:37;23.90;38.60
29813;DHT22;16707;48.106;11.548;2023-06-04T14:35:06;23.80;39.60
29813;DHT22;16707;48.106;11.548;2023-06-04T14:37:34;23.50;40.30
29813;DHT22;16707;48.106;11.548;2023-06-04T14:40:04;23.70;41.30
29813;DHT22;16707;48.106;11.548;2023-06-04T14:42:36;23.60;41.00
29813;DHT22;16707;48.106;11.548;2023-06-04T14:45:04;23.80;41.00
29813;DHT22;16707;48.106;11.548;2023-06-04T14:47:37;23.90;41.50
29813;DHT22;16707;48.106;11.548;2023-06-04T14:50:07;24.00;40.10
29813;DHT22;16707;48.106;11.548;2023-06-04T14:52:40;23.70;41.30
29813;DHT22;16707;48.106;11.548;2023-06-04T14:55:08;23.70;40.20
29813;DHT22;16707;48.106;11.548;2023-06-04T14:57:43;23.60;39.90
29813;DHT22;16707;48.106;11.548;2023-06-04T15:00:15;23.70;40.70
29813;DHT22;16707;48.106;11.548;2023-06-04T15:02:42;24.40;40.70
29813;DHT22;16707;48.106;11.548;2023-06-04T15:05:10;24.40;39.80
29813;DHT22;16707;48.106;11.548;2023-06-04T15:07:40;24.30;40.40
29813;DHT22;16707;48.106;11.548;2023-06-04T15:10:08;24.20;41.00
29813;DHT22;16707;48.106;11.548;2023-06-04T15:12:38;23.90;41.50
29813;DHT22;16707;48.106;11.548;2023-06-04T15:15:10;23.80;40.90
29813;DHT22;16707;48.106;11.548;2023-06-04T15:17:40;23.70;42.40
29813;DHT22;16707;48.106;11.548;2023-06-04T15:20:08;24.00;41.60
29813;DHT22;16707;48.106;11.548;2023-06-04T15:22:38;23.80;41.40
29813;DHT22;16707;48.106;11.548;2023-06-04T15:25:11;23.70;42.30
29813;DHT22;16707;48.106;11.548;2023-06-04T15:27:38;23.80;42.20
29813;DHT22;16707;48.106;11.548;2023-06-04T15:30:08;24.10;42.20
29813;DHT22;16707;48.106;11.548;2023-06-04T15:32:41;24.30;41.00
29813;DHT22;16707;48.106;11.548;2023-06-04T15:35:12;24.40;41.80
29813;DHT22;16707;48.106;11.548;2023-06-04T15:37:40;24.10;41.40
29813;DHT22;16707;48.106;11.548;2023-06-04T15:40:16;24.20;40.90